sensor_id;sensor_type;location;lat;lon;timestamp;temperature;humidity
60313;DHT22;46158;52.850;6.970;2024-01-30T00:00:07;15.50;69.20
60313;DHT22;46158;52.850;6.970;2024-01-30T00:02:33;15.50;69.20
60313;DHT22;46158;52.850;6.970;2024-01-30T00:04:59;15.50;69.20
60313;DHT22;46158;52.850;6.970;2024-01-30T00:07:25;15.50;69.10
60313;DHT22;46158;52.850;6.970;2024-01-30T00:09:50;15.50;69.10
60313;DHT22;46158;52.850;6.970;2024-01-30T00:12:16;15.50;69.00
60313;DHT22;46158;52.850;6.970;2024-01-30T00:14:42;15.50;69.10
60313;DHT22;46158;52.850;6.970;2024-01-30T00:17:09;15.50;69.00
60313;DHT22;46158;52.850;6.970;2024-01-30T00:19:35;15.40;68.90
60313;DHT22;46158;52.850;6.970;2024-01-30T00:22:00;15.40;68.90
60313;DHT22;46158;52.850;6.970;2024-01-30T00:24:26;15.40;68.90
60313;DHT22;46158;52.850;6.970;2024-01-30T00:26:51;15.40;68.90
60313;DHT22;46158;52.850;6.970;2024-01-30T00:29:17;15.40;68.80
60313;DHT22;46158;52.850;6.970;2024-01-30T00:31:45;15.40;68.80
60313;DHT22;46158;52.850;6.970;2024-01-30T00:34:11;15.40;68.90
60313;DHT22;46158;52.850;6.970;2024-01-30T00:36:37;15.40;68.80
60313;DHT22;46158;52.850;6.970;2024-01-30T00:39:02;15.30;68.80
60313;DHT22;46158;52.850;6.970;2024-01-30T00:41:31;15.30;68.80
60313;DHT22;46158;52.850;6.970;2024-01-30T00:43:57;15.30;68.80
60313;DHT22;46158;52.850;6.970;2024-01-30T00:46:23;15.30;68.80
60313;DHT22;46158;52.850;6.970;2024-01-30T00:48:48;15.30;68.90
60313;DHT22;46158;52.850;6.970;2024-01-30T00:51:14;15.30;69.00
60313;DHT22;46158;52.850;6.970;2024-01-30T00:53:40;15.20;68.90
60313;DHT22;46158;52.850;6.970;2024-01-30T00:56:07;15.20;68.90
60313;DHT22;46158;52.850;6.970;2024-01-30T00:58:33;15.20;68.90
60313;DHT22;46158;52.850;6.970;2024-01-30T01:00:59;15.20;68.90
60313;DHT22;46158;52.850;6.970;2024-01-30T01:03:24;15.20;68.90
60313;DHT22;46158;52.850;6.970;2024-01-30T01:05:50;15.20;69.00
60313;DHT22;46158;52.850;6.970;2024-01-30T01:08:15;15.10;68.90
60313;DHT22;46158;52.850;6.970;2024-01-30T01:10:41;15.10;68.90
60313;DHT22;46158;52.850;6.970;2024-01-30T01:13:07;15.10;68.80
60313;DHT22;46158;52.850;6.970;2024-01-30T01:15:32;15.10;68.80
60313;DHT22;46158;52.850;6.970;2024-01-30T01:17:58;15.10;68.80
60313;DHT22;46158;52.850;6.970;2024-01-30T01:20:23;15.10;68.80
60313;DHT22;46158;52.850;6.970;2024-01-30T01:22:49;15.10;68.80
60313;DHT22;46158;52.850;6.970;2024-01-30T01:25:14;15.10;68.80
60313;DHT22;46158;52.850;6.970;2024-01-30T01:27:40;15.10;68.70
60313;DHT22;46158;52.850;6.970;2024-01-30T01:30:10;15.10;69.40
60313;DHT22;46158;52.850;6.970;2024-01-30T01:32:37;15.10;68.60
60313;DHT22;46158;52.850;6.970;2024-01-30T01:35:04;15.10;68.70
60313;DHT22;46158;52.850;6.970;2024-01-30T01:37:31;15.10;68.60
60313;DHT22;46158;52.850;6.970;2024-01-30T01:39:56;15.10;68.40
60313;DHT22;46158;52.850;6.970;2024-01-30T01:42:22;15.10;68.40
60313;DHT22;46158;52.850;6.970;2024-01-30T01:44:48;15.10;68.40
60313;DHT22;46158;52.850;6.970;2024-01-30T01:47:14;15.10;68.40
60313;DHT22;46158;52.850;6.970;2024-01-30T01:49:40;15.20;69.10
60313;DHT22;46158;52.850;6.970;2024-01-30T01:52:06;15.10;68.30
60313;DHT22;46158;52.850;6.970;2024-01-30T01:54:32;15.20;68.30
60313;DHT22;46158;52.850;6.970;2024-01-30T01:56:59;15.20;68.30
60313;DHT22;46158;52.850;6.970;2024-01-30T01:59:25;15.20;68.30
60313;DHT22;46158;52.850;6.970;2024-01-30T02:01:51;15.10;68.30
60313;DHT22;46158;52.850;6.970;2024-01-30T02:04:18;15.10;68.40
60313;DHT22;46158;52.850;6.970;2024-01-30T02:06:44;15.20;68.40
60313;DHT22;46158;52.850;6.970;2024-01-30T02:09:09;15.10;68.40
60313;DHT22;46158;52.850;6.970;2024-01-30T02:11:35;15.10;68.30
60313;DHT22;46158;52.850;6.970;2024-01-30T02:14:04;15.10;68.30
60313;DHT22;46158;52.850;6.970;2024-01-30T02:16:30;15.10;68.20
60313;DHT22;46158;52.850;6.970;2024-01-30T02:18:56;15.10;68.20
60313;DHT22;46158;52.850;6.970;2024-01-30T02:21:22;15.20;68.20
60313;DHT22;46158;52.850;6.970;2024-01-30T02:23:48;15.10;68.10
60313;DHT22;46158;52.850;6.970;2024-01-30T02:26:14;15.20;68.20
60313;DHT22;46158;52.850;6.970;2024-01-30T02:28:40;15.20;68.20
60313;DHT22;46158;52.850;6.970;2024-01-30T02:31:05;15.10;68.10
60313;DHT22;46158;52.850;6.970;2024-01-30T02:33:31;15.10;68.10
60313;DHT22;46158;52.850;6.970;2024-01-30T02:35:57;15.10;68.10
60313;DHT22;46158;52.850;6.970;2024-01-30T02:38:23;15.10;68.00
60313;DHT22;46158;52.850;6.970;2024-01-30T02:40:49;15.10;68.10
60313;DHT22;46158;52.850;6.970;2024-01-30T02:43:16;15.10;68.20
60313;DHT22;46158;52.850;6.970;2024-01-30T02:45:41;15.10;68.30
60313;DHT22;46158;52.850;6.970;2024-01-30T02:48:07;15.10;68.30
60313;DHT22;46158;52.850;6.970;2024-01-30T02:50:33;15.10;68.20
60313;DHT22;46158;52.850;6.970;2024-01-30T02:52:59;15.10;68.20
60313;DHT22;46158;52.850;6.970;2024-01-30T02:55:24;15.10;68.20
60313;DHT22;46158;52.850;6.970;2024-01-30T02:57:50;15.10;68.10
60313;DHT22;46158;52.850;6.970;2024-01-30T03:00:15;15.10;68.10
60313;DHT22;46158;52.850;6.970;2024-01-30T03:02:41;15.10;68.00
60313;DHT22;46158;52.850;6.970;2024-01-30T03:05:08;15.10;68.00
60313;DHT22;46158;52.850;6.970;2024-01-30T03:07:33;15.10;68.00
60313;DHT22;46158;52.850;6.970;2024-01-30T03:09:59;15.10;68.00
60313;DHT22;46158;52.850;6.970;2024-01-30T03:12:25;15.10;68.00
60313;DHT22;46158;52.850;6.970;2024-01-30T03:14:50;15.10;67.90
60313;DHT22;46158;52.850;6.970;2024-01-30T03:17:16;15.10;67.90
60313;DHT22;46158;52.850;6.970;2024-01-30T03:19:42;15.10;67.90
60313;DHT22;46158;52.850;6.970;2024-01-30T03:22:07;15.10;67.90
60313;DHT22;46158;52.850;6.970;2024-01-30T03:24:33;15.10;67.90
60313;DHT22;46158;52.850;6.970;2024-01-30T03:26:58;15.10;67.80
60313;DHT22;46158;52.850;6.970;2024-01-30T03:29:24;15.10;67.90
60313;DHT22;46158;52.850;6.970;2024-01-30T03:31:50;15.00;68.50
60313;DHT22;46158;52.850;6.970;2024-01-30T03:34:15;15.10;67.90
60313;DHT22;46158;52.850;6.970;2024-01-30T03:36:41;15.00;67.80
60313;DHT22;46158;52.850;6.970;2024-01-30T03:39:06;15.10;67.90
60313;DHT22;46158;52.850;6.970;2024-01-30T03:41:32;15.10;67.90
60313;DHT22;46158;52.850;6.970;2024-01-30T03:43:58;15.10;67.90
60313;DHT22;46158;52.850;6.970;2024-01-30T03:46:23;15.00;67.80
60313;DHT22;46158;52.850;6.970;2024-01-30T03:48:50;15.10;67.80
60313;DHT22;46158;52.850;6.970;2024-01-30T03:51:15;15.10;67.80
60313;DHT22;46158;52.850;6.970;2024-01-30T03:53:42;15.10;67.70
60313;DHT22;46158;52.850;6.970;2024-01-30T03:56:08;15.10;67.70
60313;DHT22;46158;52.850;6.970;2024-01-30T03:58:34;15.10;67.70
60313;DHT22;46158;52.850;6.970;2024-01-30T04:01:00;15.10;67.70
60313;DHT22;46158;52.850;6.970;2024-01-30T04:03:26;15.10;67.70
60313;DHT22;46158;52.850;6.970;2024-01-30T04:05:52;15.10;67.60
60313;DHT22;46158;52.850;6.970;2024-01-30T04:08:18;15.10;67.70
60313;DHT22;46158;52.850;6.970;2024-01-30T04:10:44;15.10;67.70
60313;DHT22;46158;52.850;6.970;2024-01-30T04:13:09;15.10;68.40
60313;DHT22;46158;52.850;6.970;2024-01-30T04:15:35;15.10;67.70
60313;DHT22;46158;52.850;6.970;2024-01-30T04:18:01;15.10;67.70
60313;DHT22;46158;52.850;6.970;2024-01-30T04:20:26;15.10;67.80
60313;DHT22;46158;52.850;6.970;2024-01-30T04:22:52;15.10;67.80
60313;DHT22;46158;52.850;6.970;2024-01-30T04:25:18;15.10;67.80
60313;DHT22;46158;52.850;6.970;2024-01-30T04:27:43;15.10;67.80
60313;DHT22;46158;52.850;6.970;2024-01-30T04:30:09;15.10;67.70
60313;DHT22;46158;52.850;6.970;2024-01-30T04:32:36;15.10;67.70
60313;DHT22;46158;52.850;6.970;2024-01-30T04:35:02;15.10;67.70
60313;DHT22;46158;52.850;6.970;2024-01-30T04:37:28;15.10;67.70
60313;DHT22;46158;52.850;6.970;2024-01-30T04:39:53;15.10;67.60
60313;DHT22;46158;52.850;6.970;2024-01-30T04:42:19;15.10;67.60
60313;DHT22;46158;52.850;6.970;2024-01-30T04:44:45;15.10;67.50
60313;DHT22;46158;52.850;6.970;2024-01-30T04:47:10;15.10;67.40
60313;DHT22;46158;52.850;6.970;2024-01-30T04:49:40;15.10;67.40
60313;DHT22;46158;52.850;6.970;2024-01-30T04:52:06;15.10;67.30
60313;DHT22;46158;52.850;6.970;2024-01-30T04:54:33;15.10;67.40
60313;DHT22;46158;52.850;6.970;2024-01-30T04:56:58;15.10;67.40
60313;DHT22;46158;52.850;6.970;2024-01-30T04:59:24;15.10;67.50
60313;DHT22;46158;52.850;6.970;2024-01-30T05:01:50;15.10;67.50
60313;DHT22;46158;52.850;6.970;2024-01-30T05:04:15;15.10;67.50
60313;DHT22;46158;52.850;6.970;2024-01-30T05:06:41;15.10;67.50
60313;DHT22;46158;52.850;6.970;2024-01-30T05:09:07;15.10;67.50
60313;DHT22;46158;52.850;6.970;2024-01-30T05:11:37;15.10;67.50
60313;DHT22;46158;52.850;6.970;2024-01-30T05:14:03;15.10;67.50
60313;DHT22;46158;52.850;6.970;2024-01-30T05:16:29;15.10;67.50
60313;DHT22;46158;52.850;6.970;2024-01-30T05:18:54;15.10;67.60
60313;DHT22;46158;52.850;6.970;2024-01-30T05:21:20;15.10;67.50
60313;DHT22;46158;52.850;6.970;2024-01-30T05:23:46;15.10;67.50
60313;DHT22;46158;52.850;6.970;2024-01-30T05:26:11;15.20;67.50
60313;DHT22;46158;52.850;6.970;2024-01-30T05:28:37;15.20;67.50
60313;DHT22;46158;52.850;6.970;2024-01-30T05:31:03;15.20;67.40
60313;DHT22;46158;52.850;6.970;2024-01-30T05:33:28;15.10;67.30
60313;DHT22;46158;52.850;6.970;2024-01-30T05:35:57;15.20;67.30
60313;DHT22;46158;52.850;6.970;2024-01-30T05:38:22;15.20;67.30
60313;DHT22;46158;52.850;6.970;2024-01-30T05:40:48;15.10;67.20
60313;DHT22;46158;52.850;6.970;2024-01-30T05:43:13;15.20;67.30
60313;DHT22;46158;52.850;6.970;2024-01-30T05:45:39;15.20;67.30
60313;DHT22;46158;52.850;6.970;2024-01-30T05:48:05;15.20;67.30
60313;DHT22;46158;52.850;6.970;2024-01-30T05:50:30;15.10;67.20
60313;DHT22;46158;52.850;6.970;2024-01-30T05:52:56;15.20;67.30
60313;DHT22;46158;52.850;6.970;2024-01-30T05:55:22;15.20;67.30
60313;DHT22;46158;52.850;6.970;2024-01-30T05:57:48;15.20;67.40
60313;DHT22;46158;52.850;6.970;2024-01-30T06:00:14;15.20;67.40
60313;DHT22;46158;52.850;6.970;2024-01-30T06:02:40;15.20;67.40
60313;DHT22;46158;52.850;6.970;2024-01-30T06:05:05;15.20;67.40
60313;DHT22;46158;52.850;6.970;2024-01-30T06:07:31;15.30;67.40
60313;DHT22;46158;52.850;6.970;2024-01-30T06:09:57;15.30;67.50
60313;DHT22;46158;52.850;6.970;2024-01-30T06:12:22;15.30;67.50
60313;DHT22;46158;52.850;6.970;2024-01-30T06:14:48;15.30;67.50
60313;DHT22;46158;52.850;6.970;2024-01-30T06:17:14;15.30;67.50
60313;DHT22;46158;52.850;6.970;2024-01-30T06:19:39;15.30;67.50
60313;DHT22;46158;52.850;6.970;2024-01-30T06:22:05;15.30;67.60
60313;DHT22;46158;52.850;6.970;2024-01-30T06:24:31;15.30;67.60
60313;DHT22;46158;52.850;6.970;2024-01-30T06:26:56;15.30;67.70
60313;DHT22;46158;52.850;6.970;2024-01-30T06:29:22;15.30;67.80
60313;DHT22;46158;52.850;6.970;2024-01-30T06:31:50;15.30;67.90
60313;DHT22;46158;52.850;6.970;2024-01-30T06:34:15;15.30;68.10
60313;DHT22;46158;52.850;6.970;2024-01-30T06:36:41;15.30;68.20
60313;DHT22;46158;52.850;6.970;2024-01-30T06:39:07;15.30;68.40
60313;DHT22;46158;52.850;6.970;2024-01-30T06:41:33;15.30;68.70
60313;DHT22;46158;52.850;6.970;2024-01-30T06:43:59;15.30;69.00
60313;DHT22;46158;52.850;6.970;2024-01-30T06:46:24;15.30;69.30
60313;DHT22;46158;52.850;6.970;2024-01-30T06:48:50;15.30;69.50
60313;DHT22;46158;52.850;6.970;2024-01-30T06:51:16;15.30;69.80
60313;DHT22;46158;52.850;6.970;2024-01-30T06:53:41;15.30;70.00
60313;DHT22;46158;52.850;6.970;2024-01-30T06:56:07;15.30;70.10
60313;DHT22;46158;52.850;6.970;2024-01-30T06:58:33;15.30;70.20
60313;DHT22;46158;52.850;6.970;2024-01-30T07:00:58;15.30;70.40
60313;DHT22;46158;52.850;6.970;2024-01-30T07:03:24;15.30;70.40
60313;DHT22;46158;52.850;6.970;2024-01-30T07:05:53;15.20;70.40
60313;DHT22;46158;52.850;6.970;2024-01-30T07:08:18;15.20;70.40
60313;DHT22;46158;52.850;6.970;2024-01-30T07:10:44;15.20;70.40
60313;DHT22;46158;52.850;6.970;2024-01-30T07:13:11;15.20;70.40
60313;DHT22;46158;52.850;6.970;2024-01-30T07:15:39;15.20;70.50
60313;DHT22;46158;52.850;6.970;2024-01-30T07:18:06;15.20;70.60
60313;DHT22;46158;52.850;6.970;2024-01-30T07:20:32;15.20;70.70
60313;DHT22;46158;52.850;6.970;2024-01-30T07:23:00;15.20;70.80
60313;DHT22;46158;52.850;6.970;2024-01-30T07:25:26;15.20;70.80
60313;DHT22;46158;52.850;6.970;2024-01-30T07:27:56;15.20;70.80
60313;DHT22;46158;52.850;6.970;2024-01-30T07:30:21;15.20;70.90
60313;DHT22;46158;52.850;6.970;2024-01-30T07:32:48;15.20;70.80
60313;DHT22;46158;52.850;6.970;2024-01-30T07:35:14;15.20;70.90
60313;DHT22;46158;52.850;6.970;2024-01-30T07:37:40;15.20;70.80
60313;DHT22;46158;52.850;6.970;2024-01-30T07:40:06;15.20;70.70
60313;DHT22;46158;52.850;6.970;2024-01-30T07:42:32;15.30;70.80
60313;DHT22;46158;52.850;6.970;2024-01-30T07:44:58;15.30;70.90
60313;DHT22;46158;52.850;6.970;2024-01-30T07:47:24;15.30;70.90
60313;DHT22;46158;52.850;6.970;2024-01-30T07:49:50;15.30;70.80
60313;DHT22;46158;52.850;6.970;2024-01-30T07:52:22;15.30;70.80
60313;DHT22;46158;52.850;6.970;2024-01-30T07:54:48;15.30;70.70
60313;DHT22;46158;52.850;6.970;2024-01-30T07:57:14;15.30;70.70
60313;DHT22;46158;52.850;6.970;2024-01-30T07:59:42;15.30;70.60
60313;DHT22;46158;52.850;6.970;2024-01-30T08:02:09;15.30;70.50
60313;DHT22;46158;52.850;6.970;2024-01-30T08:04:35;15.30;70.50
60313;DHT22;46158;52.850;6.970;2024-01-30T08:07:01;15.30;70.50
60313;DHT22;46158;52.850;6.970;2024-01-30T08:09:26;15.30;70.50
60313;DHT22;46158;52.850;6.970;2024-01-30T08:11:52;15.30;70.40
60313;DHT22;46158;52.850;6.970;2024-01-30T08:14:18;15.30;70.50
60313;DHT22;46158;52.850;6.970;2024-01-30T08:16:44;15.30;70.40
60313;DHT22;46158;52.850;6.970;2024-01-30T08:19:09;15.30;70.40
60313;DHT22;46158;52.850;6.970;2024-01-30T08:21:35;15.30;70.40
60313;DHT22;46158;52.850;6.970;2024-01-30T08:24:05;15.30;70.30
60313;DHT22;46158;52.850;6.970;2024-01-30T08:26:32;15.30;70.30
60313;DHT22;46158;52.850;6.970;2024-01-30T08:28:58;15.30;70.20
60313;DHT22;46158;52.850;6.970;2024-01-30T08:31:23;15.40;70.20
60313;DHT22;46158;52.850;6.970;2024-01-30T08:33:49;15.40;70.20
60313;DHT22;46158;52.850;6.970;2024-01-30T08:36:16;15.40;70.10
60313;DHT22;46158;52.850;6.970;2024-01-30T08:38:42;15.40;70.00
60313;DHT22;46158;52.850;6.970;2024-01-30T08:41:08;15.40;70.00
60313;DHT22;46158;52.850;6.970;2024-01-30T08:43:33;15.40;70.00
60313;DHT22;46158;52.850;6.970;2024-01-30T08:46:00;15.40;69.90
60313;DHT22;46158;52.850;6.970;2024-01-30T08:48:26;15.40;69.80
60313;DHT22;46158;52.850;6.970;2024-01-30T08:50:51;15.40;69.90
60313;DHT22;46158;52.850;6.970;2024-01-30T08:53:17;15.40;69.90
60313;DHT22;46158;52.850;6.970;2024-01-30T08:55:42;15.40;69.80
60313;DHT22;46158;52.850;6.970;2024-01-30T08:58:08;15.40;69.80
60313;DHT22;46158;52.850;6.970;2024-01-30T09:00:34;15.40;69.80
60313;DHT22;46158;52.850;6.970;2024-01-30T09:02:59;15.40;69.80
60313;DHT22;46158;52.850;6.970;2024-01-30T09:05:25;15.40;69.70
60313;DHT22;46158;52.850;6.970;2024-01-30T09:07:50;15.40;69.70
60313;DHT22;46158;52.850;6.970;2024-01-30T09:10:16;15.40;69.70
60313;DHT22;46158;52.850;6.970;2024-01-30T09:12:42;15.40;69.70
60313;DHT22;46158;52.850;6.970;2024-01-30T09:15:08;15.50;69.60
60313;DHT22;46158;52.850;6.970;2024-01-30T09:17:34;15.50;69.60
60313;DHT22;46158;52.850;6.970;2024-01-30T09:19:59;15.50;69.50
60313;DHT22;46158;52.850;6.970;2024-01-30T09:22:26;15.50;69.50
60313;DHT22;46158;52.850;6.970;2024-01-30T09:24:52;15.50;69.40
60313;DHT22;46158;52.850;6.970;2024-01-30T09:27:17;15.50;69.40
60313;DHT22;46158;52.850;6.970;2024-01-30T09:29:43;15.50;69.30
60313;DHT22;46158;52.850;6.970;2024-01-30T09:32:08;15.50;69.30
60313;DHT22;46158;52.850;6.970;2024-01-30T09:34:34;15.50;69.30
60313;DHT22;46158;52.850;6.970;2024-01-30T09:37:00;15.50;69.30
60313;DHT22;46158;52.850;6.970;2024-01-30T09:39:26;15.60;69.30
60313;DHT22;46158;52.850;6.970;2024-01-30T09:42:00;15.50;69.20
60313;DHT22;46158;52.850;6.970;2024-01-30T09:44:29;15.50;69.20
60313;DHT22;46158;52.850;6.970;2024-01-30T09:46:56;15.50;69.20
60313;DHT22;46158;52.850;6.970;2024-01-30T09:49:24;15.60;69.30
60313;DHT22;46158;52.850;6.970;2024-01-30T09:51:51;15.50;69.20
60313;DHT22;46158;52.850;6.970;2024-01-30T09:54:18;15.60;69.30
60313;DHT22;46158;52.850;6.970;2024-01-30T09:56:45;15.60;69.20
60313;DHT22;46158;52.850;6.970;2024-01-30T09:59:10;15.60;69.20
60313;DHT22;46158;52.850;6.970;2024-01-30T10:01:36;15.60;69.10
60313;DHT22;46158;52.850;6.970;2024-01-30T10:04:02;15.60;69.00
60313;DHT22;46158;52.850;6.970;2024-01-30T10:06:27;15.60;69.00
60313;DHT22;46158;52.850;6.970;2024-01-30T10:08:53;15.60;69.00
60313;DHT22;46158;52.850;6.970;2024-01-30T10:11:19;15.60;68.90
60313;DHT22;46158;52.850;6.970;2024-01-30T10:13:45;15.60;68.90
60313;DHT22;46158;52.850;6.970;2024-01-30T10:16:14;15.60;68.90
60313;DHT22;46158;52.850;6.970;2024-01-30T10:18:41;15.60;68.90
60313;DHT22;46158;52.850;6.970;2024-01-30T10:21:08;15.60;68.90
60313;DHT22;46158;52.850;6.970;2024-01-30T10:23:33;15.60;68.90
60313;DHT22;46158;52.850;6.970;2024-01-30T10:25:59;15.60;68.90
60313;DHT22;46158;52.850;6.970;2024-01-30T10:28:27;15.60;68.90
60313;DHT22;46158;52.850;6.970;2024-01-30T10:30:59;15.60;68.90
60313;DHT22;46158;52.850;6.970;2024-01-30T10:33:26;15.60;68.90
60313;DHT22;46158;52.850;6.970;2024-01-30T10:36:00;15.60;68.80
60313;DHT22;46158;52.850;6.970;2024-01-30T10:38:29;15.60;68.80
60313;DHT22;46158;52.850;6.970;2024-01-30T10:40:59;15.60;68.80
60313;DHT22;46158;52.850;6.970;2024-01-30T10:43:40;15.70;68.80
60313;DHT22;46158;52.850;6.970;2024-01-30T10:46:19;15.70;68.80
60313;DHT22;46158;52.850;6.970;2024-01-30T10:48:51;15.70;68.70
60313;DHT22;46158;52.850;6.970;2024-01-30T10:51:20;15.70;68.70
60313;DHT22;46158;52.850;6.970;2024-01-30T10:53:49;15.70;68.60
60313;DHT22;46158;52.850;6.970;2024-01-30T10:56:16;15.70;68.60
60313;DHT22;46158;52.850;6.970;2024-01-30T10:58:42;15.70;68.60
60313;DHT22;46158;52.850;6.970;2024-01-30T11:01:08;15.70;68.60
60313;DHT22;46158;52.850;6.970;2024-01-30T11:03:35;15.70;68.60
60313;DHT22;46158;52.850;6.970;2024-01-30T11:06:02;15.70;68.60
60313;DHT22;46158;52.850;6.970;2024-01-30T11:08:31;15.70;68.60
60313;DHT22;46158;52.850;6.970;2024-01-30T11:10:58;15.60;68.60
60313;DHT22;46158;52.850;6.970;2024-01-30T11:13:30;15.70;68.60
60313;DHT22;46158;52.850;6.970;2024-01-30T11:16:00;15.70;68.60
60313;DHT22;46158;52.850;6.970;2024-01-30T11:18:30;15.70;68.60
60313;DHT22;46158;52.850;6.970;2024-01-30T11:21:00;15.70;68.60
60313;DHT22;46158;52.850;6.970;2024-01-30T11:23:30;15.70;68.60
60313;DHT22;46158;52.850;6.970;2024-01-30T11:25:56;15.70;68.50
60313;DHT22;46158;52.850;6.970;2024-01-30T11:28:22;15.70;68.60
60313;DHT22;46158;52.850;6.970;2024-01-30T11:30:48;15.70;68.50
60313;DHT22;46158;52.850;6.970;2024-01-30T11:33:29;15.70;68.50
60313;DHT22;46158;52.850;6.970;2024-01-30T11:35:57;15.70;68.50
60313;DHT22;46158;52.850;6.970;2024-01-30T11:38:26;15.70;68.50
60313;DHT22;46158;52.850;6.970;2024-01-30T11:40:54;15.70;68.50
60313;DHT22;46158;52.850;6.970;2024-01-30T11:43:20;15.70;68.60
60313;DHT22;46158;52.850;6.970;2024-01-30T11:45:45;15.60;68.50
60313;DHT22;46158;52.850;6.970;2024-01-30T11:48:12;15.70;68.60
60313;DHT22;46158;52.850;6.970;2024-01-30T11:50:38;15.60;68.50
60313;DHT22;46158;52.850;6.970;2024-01-30T11:53:04;15.70;68.60
60313;DHT22;46158;52.850;6.970;2024-01-30T11:55:30;15.70;68.50
60313;DHT22;46158;52.850;6.970;2024-01-30T11:57:59;15.70;68.50
60313;DHT22;46158;52.850;6.970;2024-01-30T12:00:25;15.70;68.40
60313;DHT22;46158;52.850;6.970;2024-01-30T12:02:52;15.70;68.40
60313;DHT22;46158;52.850;6.970;2024-01-30T12:05:22;15.70;68.40
60313;DHT22;46158;52.850;6.970;2024-01-30T12:07:47;15.70;68.40
60313;DHT22;46158;52.850;6.970;2024-01-30T12:10:14;15.70;68.40
60313;DHT22;46158;52.850;6.970;2024-01-30T12:12:42;15.70;68.40
60313;DHT22;46158;52.850;6.970;2024-01-30T12:15:08;15.70;68.40
60313;DHT22;46158;52.850;6.970;2024-01-30T12:17:34;15.60;68.40
60313;DHT22;46158;52.850;6.970;2024-01-30T12:20:11;15.60;68.40
60313;DHT22;46158;52.850;6.970;2024-01-30T12:22:41;15.60;68.40
60313;DHT22;46158;52.850;6.970;2024-01-30T12:25:15;15.60;68.40
60313;DHT22;46158;52.850;6.970;2024-01-30T12:27:45;15.60;68.40
60313;DHT22;46158;52.850;6.970;2024-01-30T12:30:14;15.60;68.40
60313;DHT22;46158;52.850;6.970;2024-01-30T12:32:44;15.70;68.40
60313;DHT22;46158;52.850;6.970;2024-01-30T12:35:17;15.70;68.50
60313;DHT22;46158;52.850;6.970;2024-01-30T12:37:45;15.70;68.40
60313;DHT22;46158;52.850;6.970;2024-01-30T12:40:12;15.70;68.40
60313;DHT22;46158;52.850;6.970;2024-01-30T12:42:40;15.70;68.30
60313;DHT22;46158;52.850;6.970;2024-01-30T12:45:07;15.70;68.40
60313;DHT22;46158;52.850;6.970;2024-01-30T12:47:33;15.70;68.40
60313;DHT22;46158;52.850;6.970;2024-01-30T12:49:59;15.70;68.40
60313;DHT22;46158;52.850;6.970;2024-01-30T12:52:24;15.70;68.40
60313;DHT22;46158;52.850;6.970;2024-01-30T12:54:51;15.70;68.40
60313;DHT22;46158;52.850;6.970;2024-01-30T12:57:17;15.70;68.40
60313;DHT22;46158;52.850;6.970;2024-01-30T12:59:46;15.70;68.40
60313;DHT22;46158;52.850;6.970;2024-01-30T13:02:12;15.70;68.40
60313;DHT22;46158;52.850;6.970;2024-01-30T13:04:39;15.70;68.40
60313;DHT22;46158;52.850;6.970;2024-01-30T13:07:04;15.70;68.30
60313;DHT22;46158;52.850;6.970;2024-01-30T13:09:30;15.70;68.30
60313;DHT22;46158;52.850;6.970;2024-01-30T13:11:57;15.70;68.30
60313;DHT22;46158;52.850;6.970;2024-01-30T13:14:24;15.70;68.20
60313;DHT22;46158;52.850;6.970;2024-01-30T13:16:50;15.70;68.20
60313;DHT22;46158;52.850;6.970;2024-01-30T13:19:16;15.70;68.20
60313;DHT22;46158;52.850;6.970;2024-01-30T13:21:42;15.70;68.20
60313;DHT22;46158;52.850;6.970;2024-01-30T13:24:08;15.70;68.20
60313;DHT22;46158;52.850;6.970;2024-01-30T13:26:34;15.70;68.20
60313;DHT22;46158;52.850;6.970;2024-01-30T13:28:59;15.70;68.20
60313;DHT22;46158;52.850;6.970;2024-01-30T13:31:25;15.70;68.20
60313;DHT22;46158;52.850;6.970;2024-01-30T13:33:52;15.70;68.30
60313;DHT22;46158;52.850;6.970;2024-01-30T13:36:18;15.70;68.30
60313;DHT22;46158;52.850;6.970;2024-01-30T13:38:44;15.70;68.30
60313;DHT22;46158;52.850;6.970;2024-01-30T13:41:09;15.70;68.30
60313;DHT22;46158;52.850;6.970;2024-01-30T13:43:35;15.70;68.20
60313;DHT22;46158;52.850;6.970;2024-01-30T13:46:00;15.70;68.20
60313;DHT22;46158;52.850;6.970;2024-01-30T13:48:26;15.80;68.30
60313;DHT22;46158;52.850;6.970;2024-01-30T13:50:52;15.80;68.20
60313;DHT22;46158;52.850;6.970;2024-01-30T13:53:18;15.80;68.20
60313;DHT22;46158;52.850;6.970;2024-01-30T13:55:44;15.80;68.20
60313;DHT22;46158;52.850;6.970;2024-01-30T13:58:09;15.80;68.20
60313;DHT22;46158;52.850;6.970;2024-01-30T14:00:35;15.80;68.10
60313;DHT22;46158;52.850;6.970;2024-01-30T14:03:01;15.80;68.10
60313;DHT22;46158;52.850;6.970;2024-01-30T14:05:27;15.80;68.20
60313;DHT22;46158;52.850;6.970;2024-01-30T14:07:57;15.70;68.10
60313;DHT22;46158;52.850;6.970;2024-01-30T14:10:23;15.70;68.10
60313;DHT22;46158;52.850;6.970;2024-01-30T14:12:48;15.70;68.10
60313;DHT22;46158;52.850;6.970;2024-01-30T14:15:14;15.70;68.10
60313;DHT22;46158;52.850;6.970;2024-01-30T14:17:40;15.80;68.10
60313;DHT22;46158;52.850;6.970;2024-01-30T14:20:07;15.70;68.70
60313;DHT22;46158;52.850;6.970;2024-01-30T14:22:34;15.80;68.10
60313;DHT22;46158;52.850;6.970;2024-01-30T14:25:00;15.80;68.00
60313;DHT22;46158;52.850;6.970;2024-01-30T14:27:28;15.80;68.00
60313;DHT22;46158;52.850;6.970;2024-01-30T14:29:55;15.80;68.00
60313;DHT22;46158;52.850;6.970;2024-01-30T14:32:20;15.80;67.90
60313;DHT22;46158;52.850;6.970;2024-01-30T14:34:46;15.80;67.90
60313;DHT22;46158;52.850;6.970;2024-01-30T14:37:11;15.80;67.90
60313;DHT22;46158;52.850;6.970;2024-01-30T14:39:37;15.80;67.90
60313;DHT22;46158;52.850;6.970;2024-01-30T14:42:03;15.80;67.90
60313;DHT22;46158;52.850;6.970;2024-01-30T14:44:29;15.80;67.90
60313;DHT22;46158;52.850;6.970;2024-01-30T14:46:56;15.70;67.80
60313;DHT22;46158;52.850;6.970;2024-01-30T14:49:21;15.70;67.80
60313;DHT22;46158;52.850;6.970;2024-01-30T14:51:47;15.70;67.80
60313;DHT22;46158;52.850;6.970;2024-01-30T14:54:13;15.70;67.80
60313;DHT22;46158;52.850;6.970;2024-01-30T14:56:38;15.70;67.80
60313;DHT22;46158;52.850;6.970;2024-01-30T14:59:04;15.70;67.80
60313;DHT22;46158;52.850;6.970;2024-01-30T15:01:30;15.70;67.80
60313;DHT22;46158;52.850;6.970;2024-01-30T15:03:55;15.70;67.70
60313;DHT22;46158;52.850;6.970;2024-01-30T15:06:21;15.70;68.40
60313;DHT22;46158;52.850;6.970;2024-01-30T15:08:50;15.70;67.70
60313;DHT22;46158;52.850;6.970;2024-01-30T15:11:15;15.70;67.70
60313;DHT22;46158;52.850;6.970;2024-01-30T15:13:41;15.70;67.70
60313;DHT22;46158;52.850;6.970;2024-01-30T15:16:07;15.70;67.70
60313;DHT22;46158;52.850;6.970;2024-01-30T15:18:33;15.70;68.40
60313;DHT22;46158;52.850;6.970;2024-01-30T15:20:58;15.70;67.70
60313;DHT22;46158;52.850;6.970;2024-01-30T15:23:24;15.70;67.70